Time;durP1;ratioP1;P1;durP2;ratioP2;P2;SDS_P1;SDS_P2;PMS_P1;PMS_P2;Temp;Humidity;BMP_temperature;BMP_pressure;BME280_temperature;BME280_humidity;BME280_pressure;Samples;Min_cycle;Max_cycle;Signal;HPM_P1;HPM_P2
2023/04/29 00:00:52;;;;;;;;;;;10.40;99.90;;;;;;5053825;28;20202;-66
2023/04/29 00:03:18;;;;;;;;;;;10.40;99.90;;;;;;5071225;28;20380;-66
2023/04/29 00:05:45;;;;;;;;;;;10.30;99.90;;;;;;5061501;28;20316;-66
2023/04/29 00:08:12;;;;;;;;;;;10.40;99.90;;;;;;5053140;28;19924;-66
2023/04/29 00:10:39;;;;;;;;;;;10.30;99.90;;;;;;5056920;28;19925;-66
2023/04/29 00:13:06;;;;;;;;;;;10.30;99.90;;;;;;5069963;28;19924;-66
2023/04/29 00:15:33;;;;;;;;;;;10.30;99.90;;;;;;5064084;28;20323;-66
2023/04/29 00:18:01;;;;;;;;;;;10.30;99.90;;;;;;5067469;28;19932;-66
2023/04/29 00:20:27;;;;;;;;;;;10.30;99.90;;;;;;5054220;28;19994;-66
2023/04/29 00:22:54;;;;;;;;;;;10.30;99.90;;;;;;5071166;28;19951;-66
2023/04/29 00:25:21;;;;;;;;;;;10.40;99.90;;;;;;5066245;28;19970;-66
2023/04/29 00:27:48;;;;;;;;;;;10.30;99.90;;;;;;5057975;28;19978;-65
2023/04/29 00:30:14;;;;;;;;;;;10.20;99.90;;;;;;5058501;28;19925;-66
2023/04/29 00:32:42;;;;;;;;;;;10.20;99.90;;;;;;5056566;28;19968;-66
2023/04/29 00:35:11;;;;;;;;;;;10.20;99.90;;;;;;5063478;28;19932;-66
2023/04/29 00:37:37;;;;;;;;;;;10.20;99.90;;;;;;5061952;28;19932;-66
2023/04/29 00:40:05;;;;;;;;;;;10.20;99.90;;;;;;5053405;28;20020;-66
2023/04/29 00:42:32;;;;;;;;;;;10.10;99.90;;;;;;5060704;28;19925;-66
2023/04/29 00:44:59;;;;;;;;;;;10.10;99.90;;;;;;5060212;28;19975;-66
2023/04/29 00:47:26;;;;;;;;;;;10.10;99.90;;;;;;5061276;28;20013;-66
2023/04/29 00:49:53;;;;;;;;;;;10.10;99.90;;;;;;5062867;28;20274;-66
2023/04/29 00:52:21;;;;;;;;;;;10.10;99.90;;;;;;5066462;28;19994;-65
2023/04/29 00:54:48;;;;;;;;;;;10.10;99.90;;;;;;5055335;28;19924;-66
2023/04/29 00:57:15;;;;;;;;;;;10.00;99.90;;;;;;5052496;28;19978;-66
2023/04/29 00:59:44;;;;;;;;;;;10.00;99.90;;;;;;5058946;28;19951;-66
2023/04/29 01:02:11;;;;;;;;;;;9.90;99.90;;;;;;5059154;28;20392;-66
2023/04/29 01:04:38;;;;;;;;;;;9.90;99.90;;;;;;5063304;28;19924;-66
2023/04/29 01:07:10;;;;;;;;;;;9.90;99.90;;;;;;5055299;28;19972;-66
2023/04/29 01:09:44;;;;;;;;;;;9.90;99.90;;;;;;5055680;28;19925;-66
2023/04/29 01:12:15;;;;;;;;;;;9.90;99.90;;;;;;5056245;28;19972;-65
2023/04/29 01:14:43;;;;;;;;;;;9.90;99.90;;;;;;5064441;28;19932;-66
2023/04/29 01:17:11;;;;;;;;;;;9.90;99.90;;;;;;5055580;28;19924;-65
2023/04/29 01:19:44;;;;;;;;;;;9.90;99.90;;;;;;5062630;28;21239;-66
2023/04/29 01:22:11;;;;;;;;;;;9.80;99.90;;;;;;5062663;28;19925;-66
2023/04/29 01:24:39;;;;;;;;;;;9.80;99.90;;;;;;5055339;28;19925;-67
2023/04/29 01:27:11;;;;;;;;;;;9.80;99.90;;;;;;5055448;28;20371;-66
2023/04/29 01:29:41;;;;;;;;;;;9.80;99.90;;;;;;5065784;28;19931;-65
2023/04/29 01:32:13;;;;;;;;;;;9.70;99.90;;;;;;5058342;28;20337;-65
2023/04/29 01:34:44;;;;;;;;;;;9.70;99.90;;;;;;5054863;28;20047;-66
2023/04/29 01:37:14;;;;;;;;;;;9.60;99.90;;;;;;5060982;28;19994;-66
2023/04/29 01:39:46;;;;;;;;;;;9.60;99.90;;;;;;5051790;28;20015;-66
2023/04/29 01:42:15;;;;;;;;;;;9.60;99.90;;;;;;5054245;28;19963;-64
2023/04/29 01:44:42;;;;;;;;;;;9.60;99.90;;;;;;5061905;28;20031;-64
2023/04/29 01:47:10;;;;;;;;;;;9.60;99.90;;;;;;5055985;28;19978;-64
2023/04/29 01:49:37;;;;;;;;;;;9.60;99.90;;;;;;5062095;28;19955;-65
2023/04/29 01:52:07;;;;;;;;;;;9.60;99.90;;;;;;5058723;28;20352;-65
2023/04/29 01:54:35;;;;;;;;;;;9.60;99.90;;;;;;5055399;28;19931;-65
2023/04/29 01:57:03;;;;;;;;;;;9.60;99.90;;;;;;5070804;28;20024;-65
2023/04/29 01:59:30;;;;;;;;;;;9.70;99.90;;;;;;5067702;28;20167;-65
2023/04/29 02:01:57;;;;;;;;;;;9.70;99.90;;;;;;5058122;28;19967;-64
2023/04/29 02:04:24;;;;;;;;;;;9.60;99.90;;;;;;5056402;28;19929;-65
2023/04/29 02:06:52;;;;;;;;;;;9.70;99.90;;;;;;5063555;28;19930;-64
2023/04/29 02:09:19;;;;;;;;;;;9.60;99.90;;;;;;5066340;28;20324;-65
2023/04/29 02:11:45;;;;;;;;;;;9.60;99.90;;;;;;5064955;28;20335;-64
2023/04/29 02:14:13;;;;;;;;;;;9.70;99.90;;;;;;5064649;28;19985;-64
2023/04/29 02:16:40;;;;;;;;;;;9.60;99.90;;;;;;5069776;28;19928;-65
2023/04/29 02:19:07;;;;;;;;;;;9.50;99.90;;;;;;5058496;28;19925;-65
2023/04/29 02:21:34;;;;;;;;;;;9.60;99.90;;;;;;5055614;28;20468;-65
2023/04/29 02:24:01;;;;;;;;;;;9.50;99.90;;;;;;5071493;28;20041;-64
2023/04/29 02:26:28;;;;;;;;;;;9.50;99.90;;;;;;5073714;28;19931;-64
2023/04/29 02:28:56;;;;;;;;;;;9.60;99.90;;;;;;5064215;28;19924;-65
2023/04/29 02:31:24;;;;;;;;;;;9.50;99.90;;;;;;5056890;28;20499;-65
2023/04/29 02:33:50;;;;;;;;;;;9.50;99.90;;;;;;5065582;28;19967;-65
2023/04/29 02:36:17;;;;;;;;;;;9.60;99.90;;;;;;5065276;28;20005;-65
2023/04/29 02:38:44;;;;;;;;;;;9.50;99.90;;;;;;5071970;28;19931;-65
2023/04/29 02:41:15;;;;;;;;;;;9.50;99.90;;;;;;5070401;28;19987;-65
2023/04/29 02:43:43;;;;;;;;;;;9.50;99.90;;;;;;5063282;28;19972;-65
2023/04/29 02:46:10;;;;;;;;;;;9.50;99.90;;;;;;5070761;28;19960;-65
2023/04/29 02:48:38;;;;;;;;;;;9.40;99.90;;;;;;5061082;28;19930;-65
2023/04/29 02:51:05;;;;;;;;;;;9.40;99.90;;;;;;5069612;28;20021;-65
2023/04/29 02:53:32;;;;;;;;;;;9.40;99.90;;;;;;5061195;28;19928;-65
2023/04/29 02:55:58;;;;;;;;;;;9.40;99.90;;;;;;5073499;28;20408;-65
2023/04/29 02:58:25;;;;;;;;;;;9.50;99.90;;;;;;5071909;28;19963;-65
2023/04/29 03:00:52;;;;;;;;;;;9.50;99.90;;;;;;5067344;28;19925;-65
2023/04/29 03:03:19;;;;;;;;;;;9.50;99.90;;;;;;5069883;28;19960;-65
2023/04/29 03:05:47;;;;;;;;;;;9.60;99.90;;;;;;5060733;28;20365;-65
2023/04/29 03:08:14;;;;;;;;;;;9.50;99.90;;;;;;5070336;28;19924;-64
2023/04/29 03:10:41;;;;;;;;;;;9.40;99.90;;;;;;5069859;28;19928;-65
2023/04/29 03:13:08;;;;;;;;;;;9.40;99.90;;;;;;5066800;28;19986;-65
2023/04/29 03:15:35;;;;;;;;;;;9.40;99.90;;;;;;5061941;28;19924;-65
2023/04/29 03:18:03;;;;;;;;;;;9.40;99.90;;;;;;5072737;28;20330;-65
2023/04/29 03:20:31;;;;;;;;;;;9.40;99.90;;;;;;5063159;28;19925;-66
2023/04/29 03:23:00;;;;;;;;;;;9.40;99.90;;;;;;5071342;28;19974;-66
2023/04/29 03:25:27;;;;;;;;;;;9.40;99.90;;;;;;5059198;28;19979;-65
2023/04/29 03:27:54;;;;;;;;;;;9.40;99.90;;;;;;5060298;28;20401;-66
2023/04/29 03:30:21;;;;;;;;;;;9.30;99.90;;;;;;5071046;28;20475;-66
2023/04/29 03:32:47;;;;;;;;;;;9.40;99.90;;;;;;5070717;28;20381;-66
2023/04/29 03:35:14;;;;;;;;;;;9.40;99.90;;;;;;5065004;28;20009;-66
2023/04/29 03:37:43;;;;;;;;;;;9.40;99.90;;;;;;5062053;28;19974;-66
2023/04/29 03:40:12;;;;;;;;;;;9.40;99.90;;;;;;5067228;28;19978;-66
2023/04/29 03:42:39;;;;;;;;;;;9.40;99.90;;;;;;5070850;28;19932;-66
2023/04/29 03:45:06;;;;;;;;;;;9.40;99.90;;;;;;5067754;28;19932;-66
2023/04/29 03:47:33;;;;;;;;;;;9.30;99.90;;;;;;5064326;28;19972;-66
2023/04/29 03:50:00;;;;;;;;;;;9.30;99.90;;;;;;5059970;28;19925;-66
2023/04/29 03:52:27;;;;;;;;;;;9.30;99.90;;;;;;5067043;28;19974;-66
2023/04/29 03:54:53;;;;;;;;;;;9.40;99.90;;;;;;5068745;28;20019;-66
2023/04/29 03:57:22;;;;;;;;;;;9.30;99.90;;;;;;5057580;28;19990;-66
2023/04/29 03:59:49;;;;;;;;;;;9.20;99.90;;;;;;5070044;28;19924;-65
2023/04/29 04:02:15;;;;;;;;;;;9.10;99.90;;;;;;5061357;28;20019;-66
2023/04/29 04:04:42;;;;;;;;;;;9.10;99.90;;;;;;5065815;28;19929;-66
2023/04/29 04:07:10;;;;;;;;;;;9.10;99.90;;;;;;5061123;28;19928;-66
2023/04/29 04:09:37;;;;;;;;;;;9.10;99.90;;;;;;5065305;28;19931;-66
2023/04/29 04:12:04;;;;;;;;;;;9.10;99.90;;;;;;5065840;28;20610;-66
2023/04/29 04:14:32;;;;;;;;;;;9.10;99.90;;;;;;5070049;28;19947;-66
2023/04/29 04:16:59;;;;;;;;;;;9.00;99.90;;;;;;5060165;28;19924;-66
2023/04/29 04:19:27;;;;;;;;;;;9.00;99.90;;;;;;5069340;28;20011;-66
2023/04/29 04:21:54;;;;;;;;;;;9.00;99.90;;;;;;5055110;28;20038;-66
2023/04/29 04:24:21;;;;;;;;;;;9.00;99.90;;;;;;5066676;28;20008;-67
2023/04/29 04:26:48;;;;;;;;;;;9.00;99.90;;;;;;5070228;28;19931;-67
2023/04/29 04:29:14;;;;;;;;;;;9.00;99.90;;;;;;5068580;28;19924;-66
2023/04/29 04:31:43;;;;;;;;;;;9.00;99.90;;;;;;5063674;28;19924;-66
2023/04/29 04:34:09;;;;;;;;;;;9.00;99.90;;;;;;5070879;28;19924;-66
2023/04/29 04:36:36;;;;;;;;;;;9.10;99.90;;;;;;5060691;28;20460;-66
2023/04/29 04:39:03;;;;;;;;;;;9.10;99.90;;;;;;5069225;28;19932;-67
2023/04/29 04:41:30;;;;;;;;;;;9.10;99.90;;;;;;5062637;28;20381;-67
2023/04/29 04:43:57;;;;;;;;;;;9.10;99.90;;;;;;5058151;28;19931;-68
2023/04/29 04:46:24;;;;;;;;;;;9.10;99.90;;;;;;5062153;28;20411;-66
2023/04/29 04:48:52;;;;;;;;;;;9.10;99.90;;;;;;5055274;28;19932;-65
2023/04/29 04:51:19;;;;;;;;;;;9.20;99.90;;;;;;5064160;28;19964;-66
2023/04/29 04:53:46;;;;;;;;;;;9.20;99.90;;;;;;5059772;28;19925;-66
2023/04/29 04:56:13;;;;;;;;;;;9.20;99.90;;;;;;5064705;28;20438;-66
2023/04/29 04:58:39;;;;;;;;;;;9.20;99.90;;;;;;5062083;28;19928;-66
2023/04/29 05:01:06;;;;;;;;;;;9.20;99.90;;;;;;5066666;28;19925;-66
2023/04/29 05:03:33;;;;;;;;;;;9.10;99.90;;;;;;5069382;28;19929;-66
2023/04/29 05:06:01;;;;;;;;;;;9.10;99.90;;;;;;5069363;28;19980;-67
2023/04/29 05:08:28;;;;;;;;;;;9.20;99.90;;;;;;5063422;28;19924;-66
2023/04/29 05:10:55;;;;;;;;;;;9.20;99.90;;;;;;5065695;28;19924;-66
2023/04/29 05:13:22;;;;;;;;;;;9.10;99.90;;;;;;5065106;28;19978;-66
2023/04/29 05:15:48;;;;;;;;;;;9.10;99.90;;;;;;5083752;28;19924;-66
2023/04/29 05:18:15;;;;;;;;;;;9.20;99.90;;;;;;5054340;28;19972;-66
2023/04/29 05:20:42;;;;;;;;;;;9.20;99.90;;;;;;5069787;28;20019;-66
2023/04/29 05:23:10;;;;;;;;;;;9.20;99.90;;;;;;5066136;28;20527;-66
2023/04/29 05:25:37;;;;;;;;;;;9.10;99.90;;;;;;5069437;28;20011;-66
2023/04/29 05:28:04;;;;;;;;;;;9.10;99.90;;;;;;5068529;28;19925;-65
2023/04/29 05:30:31;;;;;;;;;;;9.10;99.90;;;;;;5072417;28;20017;-66
2023/04/29 05:32:58;;;;;;;;;;;9.10;99.90;;;;;;5069107;28;19932;-66
2023/04/29 05:35:25;;;;;;;;;;;9.10;99.90;;;;;;5068218;28;20346;-64
2023/04/29 05:37:52;;;;;;;;;;;9.10;99.90;;;;;;5069031;28;19940;-69
2023/04/29 05:40:22;;;;;;;;;;;9.10;99.90;;;;;;5071297;28;19983;-67
2023/04/29 05:42:48;;;;;;;;;;;9.10;99.90;;;;;;5065297;28;19976;-67
2023/04/29 05:45:15;;;;;;;;;;;9.10;99.90;;;;;;5072074;28;19925;-67
2023/04/29 05:47:42;;;;;;;;;;;9.10;99.90;;;;;;5059519;28;19976;-68
2023/04/29 05:50:09;;;;;;;;;;;9.10;99.90;;;;;;5073420;28;19985;-67
2023/04/29 05:52:35;;;;;;;;;;;9.10;99.90;;;;;;5071185;28;19924;-67
2023/04/29 05:55:02;;;;;;;;;;;9.10;99.90;;;;;;5056027;28;19968;-67
2023/04/29 05:57:30;;;;;;;;;;;9.10;99.90;;;;;;5068788;28;19976;-64
2023/04/29 05:59:58;;;;;;;;;;;9.10;99.90;;;;;;5058430;28;19925;-66
2023/04/29 06:02:25;;;;;;;;;;;9.20;99.90;;;;;;5070810;28;19924;-67
2023/04/29 06:04:52;;;;;;;;;;;9.20;99.90;;;;;;5062591;28;19987;-66
2023/04/29 06:07:19;;;;;;;;;;;9.20;99.90;;;;;;5064528;28;19924;-67
2023/04/29 06:09:45;;;;;;;;;;;9.10;99.90;;;;;;5062754;28;19990;-66
2023/04/29 06:12:12;;;;;;;;;;;9.20;99.90;;;;;;5055531;28;19994;-66
2023/04/29 06:14:40;;;;;;;;;;;9.40;99.90;;;;;;5069626;28;19924;-66
2023/04/29 06:17:07;;;;;;;;;;;9.30;99.90;;;;;;5065467;28;19925;-66
2023/04/29 06:19:34;;;;;;;;;;;9.30;99.90;;;;;;5055482;28;19928;-66
2023/04/29 06:22:01;;;;;;;;;;;9.30;99.90;;;;;;5066525;28;19931;-66
2023/04/29 06:24:27;;;;;;;;;;;9.30;99.90;;;;;;5073690;28;19986;-66
2023/04/29 06:26:54;;;;;;;;;;;9.30;99.90;;;;;;5067614;28;19978;-66
2023/04/29 06:29:21;;;;;;;;;;;9.40;99.90;;;;;;5066488;28;19924;-66
2023/04/29 06:31:49;;;;;;;;;;;9.40;99.90;;;;;;5063657;28;19928;-67
2023/04/29 06:34:16;;;;;;;;;;;9.40;99.90;;;;;;5055497;28;19929;-66
2023/04/29 06:36:43;;;;;;;;;;;9.50;99.90;;;;;;5072016;28;19982;-66
2023/04/29 06:39:09;;;;;;;;;;;9.50;99.90;;;;;;5073052;28;19931;-66
2023/04/29 06:41:36;;;;;;;;;;;9.40;99.90;;;;;;5065528;28;19978;-66
2023/04/29 06:44:03;;;;;;;;;;;9.50;99.90;;;;;;5064968;28;19924;-65
2023/04/29 06:46:30;;;;;;;;;;;9.50;99.90;;;;;;5064794;28;19990;-65
2023/04/29 06:48:58;;;;;;;;;;;9.50;99.90;;;;;;5066704;28;19925;-66
2023/04/29 06:51:26;;;;;;;;;;;9.40;99.90;;;;;;5065394;28;19928;-66
2023/04/29 06:53:53;;;;;;;;;;;9.30;99.90;;;;;;5070589;28;19931;-66
2023/04/29 06:56:20;;;;;;;;;;;9.40;99.90;;;;;;5067650;28;19924;-66
2023/04/29 06:58:47;;;;;;;;;;;9.50;99.90;;;;;;5066866;28;20449;-66
2023/04/29 07:01:17;;;;;;;;;;;9.40;99.90;;;;;;5068937;28;19928;-66
2023/04/29 07:03:43;;;;;;;;;;;9.50;99.90;;;;;;5064761;28;20292;-65
2023/04/29 07:06:12;;;;;;;;;;;9.70;99.90;;;;;;5069157;28;20418;-66
2023/04/29 07:08:38;;;;;;;;;;;9.80;99.90;;;;;;5074003;28;20326;-66
2023/04/29 07:11:05;;;;;;;;;;;9.80;99.90;;;;;;5068597;28;20019;-66
2023/04/29 07:13:32;;;;;;;;;;;9.80;99.90;;;;;;5061982;28;19924;-66
2023/04/29 07:15:59;;;;;;;;;;;10.00;99.90;;;;;;5063104;28;19967;-66
2023/04/29 07:18:26;;;;;;;;;;;10.00;99.90;;;;;;5056159;28;19934;-67
2023/04/29 07:20:54;;;;;;;;;;;10.00;99.90;;;;;;5069565;28;20226;-67
2023/04/29 07:23:22;;;;;;;;;;;10.00;99.90;;;;;;5073345;28;19924;-67
2023/04/29 07:25:49;;;;;;;;;;;10.10;99.90;;;;;;5067866;28;19993;-67
2023/04/29 07:28:16;;;;;;;;;;;10.10;99.90;;;;;;5068552;28;19924;-65
2023/04/29 07:30:42;;;;;;;;;;;10.10;99.90;;;;;;5064378;28;20278;-67
2023/04/29 07:33:09;;;;;;;;;;;10.20;99.90;;;;;;5063302;28;20258;-66
2023/04/29 07:35:36;;;;;;;;;;;10.20;99.90;;;;;;5064067;28;19974;-66
2023/04/29 07:38:03;;;;;;;;;;;10.10;99.90;;;;;;5064443;28;20017;-67
2023/04/29 07:40:31;;;;;;;;;;;10.20;99.90;;;;;;5066438;28;20462;-67
2023/04/29 07:42:58;;;;;;;;;;;10.40;99.90;;;;;;5061372;28;19986;-67
2023/04/29 07:45:24;;;;;;;;;;;10.50;99.90;;;;;;5066232;28;19924;-67
2023/04/29 07:47:51;;;;;;;;;;;10.50;99.90;;;;;;5080811;28;19928;-69
2023/04/29 07:50:18;;;;;;;;;;;10.50;99.90;;;;;;5067434;28;20020;-67
2023/04/29 07:52:45;;;;;;;;;;;10.60;99.90;;;;;;5062552;28;19963;-68
2023/04/29 07:55:12;;;;;;;;;;;10.60;99.90;;;;;;5069744;28;19993;-67
2023/04/29 07:57:40;;;;;;;;;;;10.70;99.90;;;;;;5057617;28;19932;-66
2023/04/29 08:00:08;;;;;;;;;;;10.80;99.90;;;;;;5059083;28;19975;-67
2023/04/29 08:02:35;;;;;;;;;;;11.00;99.90;;;;;;5058300;28;20352;-67
2023/04/29 08:05:02;;;;;;;;;;;11.10;99.90;;;;;;5060533;28;19924;-66
2023/04/29 08:07:29;;;;;;;;;;;11.30;99.90;;;;;;5058487;28;20393;-66
2023/04/29 08:09:56;;;;;;;;;;;11.50;99.90;;;;;;5062423;28;19933;-67
2023/04/29 08:12:22;;;;;;;;;;;11.20;99.90;;;;;;5057863;28;19925;-67
2023/04/29 08:14:50;;;;;;;;;;;11.30;99.90;;;;;;5055243;28;19924;-67
2023/04/29 08:17:17;;;;;;;;;;;11.40;99.90;;;;;;5058524;28;19932;-67
2023/04/29 08:19:44;;;;;;;;;;;11.30;99.90;;;;;;5057489;28;19928;-67
2023/04/29 08:22:12;;;;;;;;;;;11.30;99.90;;;;;;5055550;28;20385;-67
2023/04/29 08:24:41;;;;;;;;;;;11.40;99.90;;;;;;5062248;28;19931;-67
2023/04/29 08:27:08;;;;;;;;;;;11.50;99.90;;;;;;5066437;28;19924;-68
2023/04/29 08:29:36;;;;;;;;;;;11.60;99.90;;;;;;5053684;28;20638;-68
2023/04/29 08:32:06;;;;;;;;;;;11.80;99.90;;;;;;5047244;28;19939;-67
2023/04/29 08:34:35;;;;;;;;;;;11.50;99.90;;;;;;5056094;28;19944;-68
2023/04/29 08:37:02;;;;;;;;;;;11.90;99.90;;;;;;5066682;28;20523;-67
2023/04/29 08:39:29;;;;;;;;;;;12.00;99.90;;;;;;5054772;28;19928;-67
2023/04/29 08:41:56;;;;;;;;;;;12.20;99.90;;;;;;5057721;28;19925;-67
2023/04/29 08:44:23;;;;;;;;;;;12.40;99.90;;;;;;5061319;28;19978;-66
2023/04/29 08:46:50;;;;;;;;;;;12.50;99.90;;;;;;5056844;28;19925;-67
2023/04/29 08:49:19;;;;;;;;;;;12.10;99.90;;;;;;5057344;28;19979;-67
2023/04/29 08:51:47;;;;;;;;;;;12.10;99.90;;;;;;5063578;28;19928;-67
2023/04/29 08:54:14;;;;;;;;;;;12.30;99.90;;;;;;5060271;28;20328;-67
2023/04/29 08:56:45;;;;;;;;;;;12.20;99.90;;;;;;5059524;28;19932;-67
2023/04/29 08:59:12;;;;;;;;;;;11.60;99.90;;;;;;5065752;28;19924;-67
2023/04/29 09:01:40;;;;;;;;;;;11.60;99.90;;;;;;5061476;28;19925;-67
2023/04/29 09:04:10;;;;;;;;;;;11.90;99.90;;;;;;5066830;28;19970;-67
2023/04/29 09:06:38;;;;;;;;;;;12.00;99.90;;;;;;5058098;28;19928;-67
2023/04/29 09:09:05;;;;;;;;;;;12.10;99.90;;;;;;5060742;28;19924;-67
2023/04/29 09:11:32;;;;;;;;;;;11.60;99.90;;;;;;5061122;28;20401;-68
2023/04/29 09:13:59;;;;;;;;;;;11.80;99.90;;;;;;5059227;28;22110;-66
2023/04/29 09:16:26;;;;;;;;;;;12.40;99.90;;;;;;5062693;28;20373;-66
2023/04/29 09:18:54;;;;;;;;;;;12.90;99.90;;;;;;5056775;28;20001;-66
2023/04/29 09:21:21;;;;;;;;;;;13.40;99.90;;;;;;5061515;28;19933;-67
2023/04/29 09:23:49;;;;;;;;;;;12.90;99.90;;;;;;5060998;28;19929;-66
2023/04/29 09:26:16;;;;;;;;;;;12.90;99.90;;;;;;5064883;28;19925;-67
2023/04/29 09:28:44;;;;;;;;;;;12.60;99.90;;;;;;5066429;28;19924;-66
2023/04/29 09:31:11;;;;;;;;;;;12.80;99.90;;;;;;5058714;28;19933;-66
2023/04/29 09:33:51;;;;;;;;;;;12.70;99.90;;;;;;5058475;28;19968;-67
2023/04/29 09:36:32;;;;;;;;;;;12.50;99.90;;;;;;5059028;28;20293;-67
2023/04/29 09:39:00;;;;;;;;;;;12.20;99.90;;;;;;5059441;28;19954;-68
2023/04/29 09:41:27;;;;;;;;;;;12.70;99.90;;;;;;5060048;28;19929;-68
2023/04/29 09:44:04;;;;;;;;;;;13.20;99.90;;;;;;5060107;28;19976;-65
2023/04/29 09:46:31;;;;;;;;;;;13.90;99.90;;;;;;5060091;28;20397;-66
2023/04/29 09:48:58;;;;;;;;;;;14.20;99.90;;;;;;5062191;28;19929;-70
2023/04/29 09:51:24;;;;;;;;;;;14.60;99.90;;;;;;5064402;28;19943;-68
2023/04/29 09:53:51;;;;;;;;;;;14.50;99.90;;;;;;5061602;28;20471;-68
2023/04/29 09:56:20;;;;;;;;;;;15.10;99.90;;;;;;5061240;28;19932;-68
2023/04/29 09:58:47;;;;;;;;;;;15.60;99.90;;;;;;5062972;28;19978;-64
2023/04/29 10:01:18;;;;;;;;;;;15.20;99.90;;;;;;5067721;28;19932;-64
2023/04/29 10:03:45;;;;;;;;;;;15.00;99.90;;;;;;5059318;28;19993;-64
2023/04/29 10:06:13;;;;;;;;;;;14.30;99.90;;;;;;5062038;28;20058;-65
2023/04/29 10:08:40;;;;;;;;;;;14.70;99.90;;;;;;5059303;28;20247;-64
2023/04/29 10:11:07;;;;;;;;;;;14.80;99.90;;;;;;5063343;28;19967;-64
2023/04/29 10:13:37;;;;;;;;;;;14.80;99.90;;;;;;5063800;28;19939;-65
2023/04/29 10:16:08;;;;;;;;;;;13.60;99.90;;;;;;5056771;28;20003;-66
2023/04/29 10:18:36;;;;;;;;;;;13.10;99.90;;;;;;5060056;28;19960;-65
2023/04/29 10:21:06;;;;;;;;;;;13.10;99.90;;;;;;5063876;28;20469;-64
2023/04/29 10:23:34;;;;;;;;;;;12.80;99.90;;;;;;5065956;28;19924;-66
2023/04/29 10:26:02;;;;;;;;;;;12.60;99.90;;;;;;5061873;28;19998;-66
2023/04/29 10:28:31;;;;;;;;;;;12.70;99.90;;;;;;5067700;28;19928;-66
2023/04/29 10:31:01;;;;;;;;;;;12.70;99.90;;;;;;5069249;28;20011;-67
2023/04/29 10:33:31;;;;;;;;;;;13.00;99.90;;;;;;5068234;28;19928;-66
2023/04/29 10:35:59;;;;;;;;;;;13.10;99.90;;;;;;5060529;28;20020;-66
2023/04/29 10:38:28;;;;;;;;;;;13.10;99.90;;;;;;5063659;28;20038;-66
2023/04/29 10:40:56;;;;;;;;;;;13.10;99.90;;;;;;5064663;28;19928;-71
2023/04/29 10:43:23;;;;;;;;;;;13.60;99.90;;;;;;5063808;28;19964;-66
2023/04/29 10:45:50;;;;;;;;;;;14.30;99.90;;;;;;5056686;28;20573;-66
2023/04/29 10:48:21;;;;;;;;;;;14.60;99.90;;;;;;5062049;28;19925;-65
2023/04/29 10:51:01;;;;;;;;;;;14.80;99.90;;;;;;5069329;28;19933;-66
2023/04/29 10:53:28;;;;;;;;;;;14.80;99.90;;;;;;5060622;28;20003;-66
2023/04/29 10:55:56;;;;;;;;;;;15.00;99.90;;;;;;5063652;28;19924;-65
2023/04/29 10:58:41;;;;;;;;;;;14.90;99.90;;;;;;5067451;28;19924;-65
2023/04/29 11:01:10;;;;;;;;;;;14.40;99.90;;;;;;5064955;28;20024;-65
2023/04/29 11:03:37;;;;;;;;;;;;;;;;;;5055739;28;19931;-64
2023/04/29 11:06:10;;;;;;;;;;;13.50;99.90;;;;;;5057407;28;19960;-64
2023/04/29 11:08:38;;;;;;;;;;;13.60;99.90;;;;;;5064330;28;19931;-65
2023/04/29 11:11:05;;;;;;;;;;;13.90;99.90;;;;;;5063897;28;19930;-65
2023/04/29 11:13:33;;;;;;;;;;;14.40;99.90;;;;;;5055720;28;19935;-66
2023/04/29 11:16:04;;;;;;;;;;;14.80;99.90;;;;;;5058615;28;20020;-65
2023/04/29 11:18:31;;;;;;;;;;;14.50;99.90;;;;;;5068636;28;19925;-66
2023/04/29 11:21:14;;;;;;;;;;;14.70;99.90;;;;;;5060574;28;19935;-67
2023/04/29 11:23:43;;;;;;;;;;;15.00;99.90;;;;;;5063061;28;19935;-65
2023/04/29 11:26:10;;;;;;;;;;;14.40;99.90;;;;;;5061558;28;19925;-65
2023/04/29 11:28:37;;;;;;;;;;;13.90;99.90;;;;;;5062192;28;20381;-66
2023/04/29 11:31:04;;;;;;;;;;;13.80;99.90;;;;;;5068014;28;20385;-66
2023/04/29 11:33:32;;;;;;;;;;;14.00;99.90;;;;;;5066336;28;19924;-66
2023/04/29 11:35:58;;;;;;;;;;;14.50;99.90;;;;;;5061090;28;20281;-66
2023/04/29 11:38:27;;;;;;;;;;;14.60;99.90;;;;;;5065984;28;19947;-66
2023/04/29 11:40:55;;;;;;;;;;;14.50;99.90;;;;;;5061611;28;19951;-65
2023/04/29 11:43:22;;;;;;;;;;;14.20;99.90;;;;;;5057849;28;19928;-63
2023/04/29 11:45:50;;;;;;;;;;;14.10;99.90;;;;;;5067902;28;19925;-65
2023/04/29 11:48:19;;;;;;;;;;;14.10;99.90;;;;;;5064057;28;19929;-64
2023/04/29 11:50:47;;;;;;;;;;;14.20;99.90;;;;;;5066185;28;20400;-65
2023/04/29 11:53:13;;;;;;;;;;;13.70;99.90;;;;;;5063835;28;19932;-65
2023/04/29 11:55:43;;;;;;;;;;;13.90;99.90;;;;;;5064708;28;20343;-65
2023/04/29 11:58:10;;;;;;;;;;;14.00;99.90;;;;;;5064324;28;19932;-65
2023/04/29 12:00:36;;;;;;;;;;;14.50;99.90;;;;;;5062532;28;19929;-67
2023/04/29 12:03:07;;;;;;;;;;;15.20;99.90;;;;;;5063947;28;20289;-67
2023/04/29 12:05:34;;;;;;;;;;;;;;;;;;5069963;28;19944;-67
2023/04/29 12:08:01;;;;;;;;;;;14.90;99.90;;;;;;5062212;28;19972;-67
2023/04/29 12:10:28;;;;;;;;;;;15.40;99.90;;;;;;5052958;28;19929;-67
2023/04/29 12:12:57;;;;;;;;;;;14.60;99.90;;;;;;5064052;28;20014;-66
2023/04/29 12:15:24;;;;;;;;;;;14.20;99.90;;;;;;5059142;28;20023;-67
2023/04/29 12:17:51;;;;;;;;;;;14.60;99.90;;;;;;5057545;28;20011;-68
2023/04/29 12:20:18;;;;;;;;;;;14.60;99.90;;;;;;5064535;28;19924;-68
2023/04/29 12:22:45;;;;;;;;;;;14.70;99.90;;;;;;5059793;28;20383;-69
2023/04/29 12:25:12;;;;;;;;;;;15.20;99.90;;;;;;5063014;28;20339;-67
2023/04/29 12:27:40;;;;;;;;;;;15.60;99.90;;;;;;5054865;28;20037;-67
2023/04/29 12:30:09;;;;;;;;;;;15.70;99.90;;;;;;5065309;28;20015;-67
2023/04/29 12:32:36;;;;;;;;;;;15.80;99.90;;;;;;5053370;28;20346;-67
2023/04/29 12:35:03;;;;;;;;;;;15.30;99.90;;;;;;5064750;28;20011;-66
2023/04/29 12:37:30;;;;;;;;;;;14.60;99.90;;;;;;5059684;28;19932;-67
2023/04/29 12:39:56;;;;;;;;;;;14.80;99.90;;;;;;5056496;28;19964;-65
2023/04/29 12:42:23;;;;;;;;;;;14.70;99.90;;;;;;5059522;28;20032;-66
2023/04/29 12:44:50;;;;;;;;;;;14.30;99.90;;;;;;5059173;28;20381;-66
2023/04/29 12:47:20;;;;;;;;;;;14.10;99.90;;;;;;5060149;28;20020;-67
2023/04/29 12:49:48;;;;;;;;;;;14.30;99.90;;;;;;5056605;28;20027;-66
2023/04/29 12:52:15;;;;;;;;;;;14.90;99.90;;;;;;5054661;28;19925;-68
2023/04/29 12:54:42;;;;;;;;;;;15.90;99.90;;;;;;5059325;28;19924;-68
2023/04/29 12:57:09;;;;;;;;;;;16.30;99.90;;;;;;5061551;28;20003;-68
2023/04/29 12:59:36;;;;;;;;;;;17.00;99.90;;;;;;5057744;28;19935;-68
2023/04/29 13:02:03;;;;;;;;;;;17.30;99.90;;;;;;5056380;28;19983;-69
2023/04/29 13:04:31;;;;;;;;;;;17.40;99.90;;;;;;5057437;28;19924;-68
2023/04/29 13:06:59;;;;;;;;;;;17.10;99.90;;;;;;5052997;28;20364;-68
2023/04/29 13:09:26;;;;;;;;;;;16.90;99.90;;;;;;5061909;28;20300;-68
2023/04/29 13:11:53;;;;;;;;;;;16.60;99.90;;;;;;5059448;28;19929;-70
2023/04/29 13:14:20;;;;;;;;;;;;;;;;;;5060684;28;19929;-69
2023/04/29 13:16:47;;;;;;;;;;;;;;;;;;5063928;28;19967;-69
2023/04/29 13:19:14;;;;;;;;;;;;;;;;;;5063818;28;20028;-70
2023/04/29 13:21:41;;;;;;;;;;;;;;;;;;5058663;28;20381;-67
2023/04/29 13:24:08;;;;;;;;;;;;;;;;;;5061250;28;20036;-67
2023/04/29 13:26:36;;;;;;;;;;;;;;;;;;5050934;28;19929;-66
2023/04/29 13:29:05;;;;;;;;;;;15.80;99.90;;;;;;5061882;28;20396;-66
2023/04/29 13:31:32;;;;;;;;;;;;;;;;;;5062053;28;19990;-66
2023/04/29 13:33:58;;;;;;;;;;;15.20;99.90;;;;;;5061936;28;19924;-67
2023/04/29 13:36:27;;;;;;;;;;;;;;;;;;5055794;28;19924;-67
2023/04/29 13:38:54;;;;;;;;;;;;;;;;;;5055924;28;19925;-67
2023/04/29 13:41:21;;;;;;;;;;;;;;;;;;5067213;28;19975;-67
2023/04/29 13:43:48;;;;;;;;;;;;;;;;;;5062701;28;19924;-67
2023/04/29 13:46:15;;;;;;;;;;;;;;;;;;5064528;28;20397;-67
2023/04/29 13:48:42;;;;;;;;;;;;;;;;;;5062267;28;19929;-66
2023/04/29 13:51:09;;;;;;;;;;;;;;;;;;5055556;28;20394;-67
2023/04/29 13:53:37;;;;;;;;;;;;;;;;;;5061014;28;19932;-66
2023/04/29 13:56:03;;;;;;;;;;;;;;;;;;5072434;28;19924;-65
2023/04/29 13:58:30;;;;;;;;;;;;;;;;;;5071639;28;19982;-66
2023/04/29 14:00:57;;;;;;;;;;;;;;;;;;5059462;28;20360;-65
2023/04/29 14:03:25;;;;;;;;;;;;;;;;;;5061525;28;19925;-66
2023/04/29 14:05:52;;;;;;;;;;;;;;;;;;5067663;28;19938;-67
2023/04/29 14:08:19;;;;;;;;;;;;;;;;;;5064426;28;20320;-66
2023/04/29 14:10:46;;;;;;;;;;;;;;;;;;5061554;28;20031;-66
2023/04/29 14:13:13;;;;;;;;;;;;;;;;;;5060622;28;19936;-66
2023/04/29 14:15:40;;;;;;;;;;;;;;;;;;5067378;28;20444;-66
2023/04/29 14:18:08;;;;;;;;;;;;;;;;;;5070577;28;19936;-66
2023/04/29 14:20:35;;;;;;;;;;;;;;;;;;5056283;28;19928;-66
2023/04/29 14:23:02;;;;;;;;;;;;;;;;;;5059737;28;19981;-67
2023/04/29 14:25:29;;;;;;;;;;;;;;;;;;5064503;28;19966;-67
2023/04/29 14:27:56;;;;;;;;;;;;;;;;;;5062957;28;19968;-66
2023/04/29 14:30:23;;;;;;;;;;;;;;;;;;5055884;28;19968;-66
2023/04/29 14:32:50;;;;;;;;;;;;;;;;;;5060092;28;20488;-66
2023/04/29 14:35:17;;;;;;;;;;;;;;;;;;5061866;28;19936;-65
2023/04/29 14:37:45;;;;;;;;;;;;;;;;;;5062921;28;19978;-66